ROTAER D-AMDT 5/20 Ver Mudanças

GEN. LEITE DE CASTRO ( SWLC ) / RIO VERDE, GO 17 50 05S/050 57 22W
AD PUB/MIL 6E UTC-3 VFR L21 , L26 751 (2464)

03 - L12 - ( 1500x30 ASPH 19/F/C/Y/U L14 , L15 ) - L12 - 21

(CINDACTA 1)
CMB- [1] PF TF SER - S1  
MET -

[2]

RMK -

DADOS SOBRE OS PÁTIOS, PISTAS DE TAXI E PONTOS DE VERIFICAÇÃO
  1. RWY 03 últimos 45m CLSD para LDG/TKOF.
OUTRAS LUZES, FONTE SECUNDÁRIA DE ENERGIA
  1. Acionamento do balizamento pelo TEL: (64) 3620-2125, com antecedência mínima de 30MIN.
INFORMAÇÃO ADICIONAL
  1. OBS ACFT agrícola em voo próximo ao AD.
  2. CTC com Administração através dos TEL: (64) 3620-2125 ou (64) 3622-6437
COMPL -
  • [1] Abastecimento pela empresa AEROPREST através dos TEL: (64) 3622-5428 ou (64) 9279-3646
  • [2] Estação de Radiodifusão Automática de Aeródromo (ERAA) FREQ 130.425MHZ H24.
TEMP (1)
INFOTEMP BS0139M/20
OBST MONTADO (EDIFICACAO METALICA) NEG LGTD COORD 175005S/0505712W ELEV 786M

Duração: 11/02/20 19:17 a 30/06/20 23:59 UTC | Divulgação: 11/02/2020 19:17


Suplementos AIP (0)

NOTAM (0)

Nascer/Por do Sol

09:21

21:52


METAR

260000Z AUTO 12004KT CAVOK 26/21 Q1014=

TAF

251000Z 2512/2524 35007KT 9999 SCT030 TX28/2515Z TN23/2523Z RMK PED=


Cartas (0)


Rotas Preferenciais (0)